Time;durP1;ratioP1;P1;durP2;ratioP2;P2;SDS_P1;SDS_P2;PMS_P1;PMS_P2;Temp;Humidity;BMP_temperature;BMP_pressure;BME280_temperature;BME280_humidity;BME280_pressure;Samples;Min_cycle;Max_cycle;Signal;HPM_P1;HPM_P2
2021/04/21 00:01:34;;;;;;;0.30;0.20;;;;;;;5.64;99.53;100177.22;5058817;28;20466;-51
2021/04/21 00:04:03;;;;;;;0.30;0.20;;;;;;;5.74;99.67;100177.09;5059970;28;20450;-51
2021/04/21 00:06:30;;;;;;;0.30;0.20;;;;;;;5.57;99.89;100172.88;5063770;28;20471;-51
2021/04/21 00:08:58;;;;;;;0.40;0.30;;;;;;;5.76;99.65;100170.06;5048102;28;20460;-51
2021/04/21 00:11:24;;;;;;;0.73;0.73;;;;;;;5.68;98.64;100175.41;5046028;28;20470;-51
2021/04/21 00:13:51;;;;;;;0.30;0.20;;;;;;;5.55;99.29;100172.03;5058930;28;20553;-51
2021/04/21 00:16:17;;;;;;;0.60;0.60;;;;;;;5.43;100.00;100172.13;5065449;28;20454;-51
2021/04/21 00:18:45;;;;;;;0.30;0.20;;;;;;;5.65;99.66;100173.69;5065549;28;20446;-51
2021/04/21 00:21:12;;;;;;;0.30;0.20;;;;;;;5.46;100.00;100166.84;5059292;28;20465;-50
2021/04/21 00:23:41;;;;;;;0.30;0.20;;;;;;;5.64;100.00;100169.31;5058696;28;20489;-51
2021/04/21 00:26:15;;;;;;;0.30;0.20;;;;;;;5.69;99.46;100171.00;5055687;28;20827;-51
2021/04/21 00:28:42;;;;;;;0.30;0.20;;;;;;;5.57;99.73;100167.59;5049950;28;20932;-51
2021/04/21 00:31:12;;;;;;;3.53;1.23;;;;;;;5.57;99.52;100167.59;5063175;28;20498;-50
2021/04/21 00:33:41;;;;;;;0.30;0.20;;;;;;;5.52;99.64;100164.16;5054280;28;20441;-51
2021/04/21 00:36:13;;;;;;;0.30;0.20;;;;;;;5.39;99.61;100162.53;5061950;28;20466;-51
2021/04/21 00:38:51;;;;;;;0.30;0.20;;;;;;;5.42;99.63;100162.50;5058149;28;20451;-54
2021/04/21 00:41:50;;;;;;;0.30;0.20;;;;;;;5.30;99.83;100163.47;5043712;28;20520;-51
2021/04/21 00:44:16;;;;;;;0.30;0.20;;;;;;;5.17;100.00;100160.97;5056014;28;20450;-51
2021/04/21 00:46:50;;;;;;;0.30;0.20;;;;;;;5.34;100.00;100164.31;5062469;28;20460;-51
2021/04/21 00:49:32;;;;;;;0.30;0.20;;;;;;;5.39;100.00;100166.94;5065310;28;20558;-51
2021/04/21 00:52:06;;;;;;;0.30;0.20;;;;;;;5.38;100.00;100159.91;5069413;28;20900;-51
2021/04/21 00:54:37;;;;;;;0.30;0.20;;;;;;;5.46;99.17;100176.50;5069494;28;20445;-51
2021/04/21 00:57:10;;;;;;;0.30;0.20;;;;;;;5.36;99.34;100165.19;5064391;28;20441;-51
2021/04/21 00:59:59;;;;;;;0.30;0.20;;;;;;;5.31;100.00;100164.34;5062343;28;20454;-51
2021/04/21 01:02:33;;;;;;;0.30;0.20;;;;;;;5.21;99.93;100162.72;5054272;28;20843;-52
2021/04/21 01:05:00;;;;;;;0.30;0.20;;;;;;;5.20;100.00;100166.19;5069506;28;20454;-51
2021/04/21 01:07:28;;;;;;;0.30;0.20;;;;;;;5.13;100.00;100160.13;5069158;28;20468;-51
2021/04/21 01:09:57;;;;;;;0.30;0.20;;;;;;;5.09;100.00;100163.69;5053617;28;20544;-52
2021/04/21 01:12:27;;;;;;;0.30;0.20;;;;;;;4.92;100.00;100166.44;5069026;28;20495;-51
2021/04/21 01:14:55;;;;;;;0.30;0.20;;;;;;;5.24;100.00;100157.41;5063564;28;20533;-51
2021/04/21 01:17:26;;;;;;;1.70;1.67;;;;;;;4.97;100.00;100166.41;5061917;28;21001;-52
2021/04/21 01:19:58;;;;;;;0.30;0.20;;;;;;;5.02;100.00;100156.69;5067145;28;20518;-51
2021/04/21 01:22:40;;;;;;;0.30;0.20;;;;;;;5.21;100.00;100152.16;5068626;28;20520;-52
2021/04/21 01:25:10;;;;;;;0.30;0.20;;;;;;;5.26;100.00;100161.75;5067017;28;20499;-51
2021/04/21 01:27:45;;;;;;;0.90;0.90;;;;;;;5.19;99.86;100159.19;5061935;28;20449;-51
2021/04/21 01:30:33;;;;;;;0.30;0.20;;;;;;;5.02;99.47;100152.31;5062344;28;20490;-52
2021/04/21 01:33:08;;;;;;;0.30;0.10;;;;;;;5.12;99.75;100158.38;5066713;23;20490;-58
2021/04/21 01:35:35;;;;;;;0.30;0.20;;;;;;;4.91;100.00;100148.00;5056150;28;20446;-57
2021/04/21 01:38:03;;;;;;;0.30;0.20;;;;;;;4.85;100.00;100154.22;5056646;28;20450;-58
2021/04/21 01:40:34;;;;;;;0.30;0.20;;;;;;;4.78;100.00;100148.97;5056683;28;20442;-58
2021/04/21 01:43:06;;;;;;;0.30;0.20;;;;;;;4.78;100.00;100155.13;5039328;28;20472;-58
2021/04/21 01:45:33;;;;;;;0.30;0.30;;;;;;;4.72;100.00;100147.28;5037416;28;20497;-58
2021/04/21 01:48:06;;;;;;;0.70;0.70;;;;;;;4.79;100.00;100151.59;5037117;28;20451;-58
2021/04/21 01:50:33;;;;;;;0.30;0.20;;;;;;;4.86;100.00;100145.41;5036643;28;20499;-58
2021/04/21 01:53:02;;;;;;;0.30;0.20;;;;;;;5.00;100.00;100151.44;5036518;28;20503;-58
2021/04/21 01:55:55;;;;;;;2.10;1.23;;;;;;;4.95;100.00;100145.34;5035264;28;20949;-56
2021/04/21 01:58:29;;;;;;;0.30;0.20;;;;;;;4.62;100.00;100146.47;5036144;28;20944;-57
2021/04/21 02:01:26;;;;;;;0.30;0.20;;;;;;;4.59;100.00;100143.88;5036740;28;20446;-57
2021/04/21 02:03:58;;;;;;;0.30;0.20;;;;;;;4.55;100.00;100147.41;5037225;28;20448;-58
2021/04/21 02:06:54;;;;;;;0.30;0.20;;;;;;;4.63;100.00;100150.84;5037360;28;20478;-58
2021/04/21 02:09:54;;;;;;;0.30;0.20;;;;;;;4.43;100.00;100150.97;5036779;28;20483;-58
2021/04/21 02:12:38;;;;;;;0.30;0.20;;;;;;;4.49;100.00;100157.97;5036625;28;20484;-58
2021/04/21 02:15:13;;;;;;;0.30;0.20;;;;;;;4.50;100.00;100154.44;5036600;28;20498;-57
2021/04/21 02:17:45;;;;;;;1.70;1.60;;;;;;;4.47;100.00;100157.09;5036810;28;20501;-58
2021/04/21 02:20:35;;;;;;;0.30;0.20;;;;;;;4.57;100.00;100157.91;5036692;28;20447;-58
2021/04/21 02:23:13;;;;;;;0.30;0.20;;;;;;;4.43;100.00;100161.50;5024999;28;20476;-58
2021/04/21 02:26:08;;;;;;;0.30;0.20;;;;;;;4.36;100.00;100154.53;5037040;28;20949;-58
2021/04/21 02:28:52;;;;;;;0.30;0.20;;;;;;;4.47;100.00;100154.47;5036714;28;20448;-58
2021/04/21 02:31:23;;;;;;;0.30;0.20;;;;;;;4.39;100.00;100145.75;5036391;28;20496;-57
2021/04/21 02:34:19;;;;;;;0.30;0.20;;;;;;;4.33;100.00;100161.56;5036943;28;20470;-58
2021/04/21 02:36:55;;;;;;;0.30;0.20;;;;;;;4.21;100.00;100157.22;5036450;28;20860;-58
2021/04/21 02:39:37;;;;;;;0.30;0.20;;;;;;;4.25;100.00;100158.09;5036779;28;20454;-58
2021/04/21 02:42:27;;;;;;;0.30;0.20;;;;;;;4.34;100.00;100148.41;5036652;28;20467;-58
2021/04/21 02:45:10;;;;;;;1.67;1.67;;;;;;;4.23;100.00;100157.22;5025173;28;20456;-58
2021/04/21 02:47:43;;;;;;;0.77;0.77;;;;;;;4.20;100.00;100155.50;5036047;28;20451;-58
2021/04/21 02:50:22;;;;;;;0.30;0.20;;;;;;;4.25;100.00;100161.63;5035598;28;20495;-57
2021/04/21 02:52:57;;;;;;;0.30;0.20;;;;;;;4.35;100.00;100160.66;5036836;28;20468;-56
2021/04/21 02:55:37;;;;;;;0.30;0.20;;;;;;;4.32;100.00;100158.06;5036965;28;20501;-56
2021/04/21 02:58:06;;;;;;;0.30;0.20;;;;;;;4.36;100.00;100157.16;5036214;28;20499;-56
2021/04/21 03:00:41;;;;;;;0.30;0.20;;;;;;;4.20;100.00;100162.50;5036360;28;20521;-56
2021/04/21 03:03:53;;;;;;;0.30;0.20;;;;;;;4.22;100.00;100160.75;5036440;28;20463;-56
2021/04/21 03:06:26;;;;;;;0.30;0.20;;;;;;;4.15;100.00;100159.91;5016316;28;20451;-56
2021/04/21 03:09:05;;;;;;;0.30;0.20;;;;;;;4.03;100.00;100166.09;5036777;28;20497;-56
2021/04/21 03:11:32;;;;;;;0.67;0.67;;;;;;;4.09;100.00;100159.91;5023349;28;20529;-56
2021/04/21 03:14:03;;;;;;;0.30;0.20;;;;;;;4.26;100.00;100158.09;5036257;28;20444;-57
2021/04/21 03:16:39;;;;;;;0.30;0.20;;;;;;;4.19;100.00;100159.00;5036331;28;20538;-56
2021/04/21 03:19:07;;;;;;;0.30;0.20;;;;;;;4.14;100.00;100156.41;5035782;28;20455;-57
2021/04/21 03:21:42;;;;;;;0.30;0.20;;;;;;;4.05;100.00;100155.56;5035922;28;20543;-56
2021/04/21 03:24:28;;;;;;;0.63;0.60;;;;;;;4.12;100.00;100152.91;5036367;28;20892;-57
2021/04/21 03:27:01;;;;;;;0.30;0.20;;;;;;;4.18;100.00;100159.00;5035539;28;20444;-55
2021/04/21 03:29:32;;;;;;;0.30;0.20;;;;;;;4.07;100.00;100156.44;5035795;28;20491;-55
2021/04/21 03:32:04;;;;;;;0.30;0.17;;;;;;;4.11;100.00;100152.88;5034480;28;20479;-55
2021/04/21 03:34:32;;;;;;;0.30;0.20;;;;;;;3.99;100.00;100158.22;5034283;28;20554;-56
2021/04/21 03:36:58;;;;;;;0.30;0.20;;;;;;;4.14;100.00;100152.91;5035355;28;20944;-56
2021/04/21 03:39:25;;;;;;;0.30;0.20;;;;;;;3.82;100.00;100147.75;5035482;28;20494;-56
2021/04/21 03:41:51;;;;;;;0.30;0.20;;;;;;;3.75;100.00;100152.19;5035381;28;20468;-56
2021/04/21 03:44:18;;;;;;;0.30;0.20;;;;;;;3.86;100.00;100146.88;5035703;28;20448;-57
2021/04/21 03:46:45;;;;;;;0.30;0.20;;;;;;;3.91;100.00;100149.50;5034914;28;20455;-56
2021/04/21 03:49:11;;;;;;;0.30;0.20;;;;;;;3.90;100.00;100155.63;5035111;28;20479;-56
2021/04/21 03:51:39;;;;;;;0.30;0.20;;;;;;;3.85;100.00;100151.28;5034139;28;20502;-56
2021/04/21 03:54:06;;;;;;;0.30;0.10;;;;;;;3.96;100.00;100148.56;5035077;28;20459;-57
2021/04/21 03:56:36;;;;;;;0.30;0.10;;;;;;;3.79;100.00;100148.66;5035226;28;20509;-57
2021/04/21 03:59:03;;;;;;;0.30;0.20;;;;;;;3.80;100.00;100153.03;5035235;28;20448;-57
2021/04/21 04:01:34;;;;;;;0.30;0.20;;;;;;;3.80;100.00;100158.28;5034814;28;20467;-57
2021/04/21 04:04:05;;;;;;;0.30;0.10;;;;;;;3.72;100.00;100151.31;5035335;28;20820;-57
2021/04/21 04:06:41;;;;;;;0.30;0.20;;;;;;;3.71;100.00;100147.81;5035110;28;20457;-57
2021/04/21 04:09:09;;;;;;;0.30;0.20;;;;;;;3.76;100.00;100150.41;5035465;28;20451;-57
2021/04/21 04:11:45;;;;;;;0.30;0.30;;;;;;;3.73;100.00;100151.31;5034919;28;21019;-57
2021/04/21 04:14:27;;;;;;;0.30;0.17;;;;;;;3.72;100.00;100157.44;5035173;28;20877;-57
2021/04/21 04:16:55;;;;;;;0.30;0.20;;;;;;;3.75;100.00;100164.44;5034956;28;20986;-57
2021/04/21 04:19:22;;;;;;;0.30;0.20;;;;;;;3.57;100.00;100157.50;5034555;28;20454;-57
2021/04/21 04:22:07;;;;;;;0.30;0.20;;;;;;;3.42;100.00;100171.50;5035344;28;20473;-57
2021/04/21 04:24:47;;;;;;;0.30;0.20;;;;;;;3.44;100.00;100163.66;5023338;28;20478;-57
2021/04/21 04:27:16;;;;;;;0.30;0.20;;;;;;;3.50;100.00;100167.13;5035021;28;20478;-57
2021/04/21 04:29:43;;;;;;;0.30;0.10;;;;;;;3.60;100.00;100164.50;5034787;28;20491;-57
2021/04/21 04:32:15;;;;;;;0.30;0.20;;;;;;;4.11;100.00;100166.03;5034592;28;20531;-56
2021/04/21 04:34:47;;;;;;;0.30;0.17;;;;;;;4.03;100.00;100170.47;5034101;28;20513;-59
2021/04/21 04:37:16;;;;;;;0.30;0.13;;;;;;;3.68;100.00;100171.47;5034150;28;20944;-57
2021/04/21 04:39:43;;;;;;;0.30;0.20;;;;;;;3.69;100.00;100178.47;5034761;28;20452;-57
2021/04/21 04:42:11;;;;;;;0.30;0.20;;;;;;;3.74;100.00;100186.34;5034503;28;20472;-57
2021/04/21 04:44:42;;;;;;;0.30;0.20;;;;;;;3.74;100.00;100181.97;5034693;28;20452;-58
2021/04/21 04:47:11;;;;;;;0.30;0.10;;;;;;;3.74;100.00;100188.97;5022220;28;20498;-57
2021/04/21 04:50:08;;;;;;;0.30;0.20;;;;;;;3.68;100.00;100181.97;5034803;28;20586;-57
2021/04/21 04:52:38;;;;;;;0.30;0.20;;;;;;;3.76;100.00;100181.97;5013286;28;20525;-58
2021/04/21 04:55:05;;;;;;;0.30;0.20;;;;;;;3.77;100.00;100189.84;5034583;28;20502;-57
2021/04/21 04:57:32;;;;;;;0.30;0.20;;;;;;;3.86;100.00;100184.56;5034812;28;20877;-57
2021/04/21 05:00:01;;;;;;;0.30;0.20;;;;;;;3.98;100.00;100195.94;5034137;28;20944;-57
2021/04/21 05:02:31;;;;;;;0.30;0.20;;;;;;;3.83;100.00;100189.81;5032688;28;20521;-57
2021/04/21 05:05:08;;;;;;;1.13;1.13;;;;;;;4.15;100.00;100197.59;5021494;28;20861;-57
2021/04/21 05:07:43;;;;;;;0.30;0.20;;;;;;;4.30;100.00;100196.66;5033864;28;20443;-58
2021/04/21 05:10:25;;;;;;;0.30;0.20;;;;;;;4.66;100.00;100205.22;5033500;28;20505;-58
2021/04/21 05:12:53;;;;;;;0.30;0.20;;;;;;;4.91;100.00;100201.53;5033721;28;20468;-58
2021/04/21 05:15:31;;;;;;;0.30;0.20;;;;;;;5.33;100.00;100205.59;5032206;28;20505;-59
2021/04/21 05:18:04;;;;;;;0.30;0.20;;;;;;;5.64;98.99;100215.88;5020615;28;20455;-58
2021/04/21 05:20:49;;;;;;;0.30;0.20;;;;;;;5.82;98.06;100210.41;5033660;28;20447;-58
2021/04/21 05:23:18;;;;;;;0.30;0.20;;;;;;;6.10;96.54;100213.66;5033011;28;20507;-58
2021/04/21 05:26:18;;;;;;;1.37;0.73;;;;;;;6.51;95.35;100214.91;5032774;28;20455;-58
2021/04/21 05:29:05;;;;;;;0.30;0.10;;;;;;;6.60;93.65;100220.06;5033838;28;20448;-58
2021/04/21 05:31:56;;;;;;;0.30;0.20;;;;;;;6.54;94.20;100212.22;5035875;28;20495;-58
2021/04/21 05:34:37;;;;;;;0.30;0.20;;;;;;;6.83;93.73;100220.59;5027004;28;20456;-66
2021/04/21 05:37:40;;;;;;;0.30;0.20;;;;;;;6.87;93.00;100218.81;5037429;28;20467;-58
2021/04/21 05:40:25;;;;;;;0.30;0.20;;;;;;;7.15;92.49;100221.03;5037553;28;20831;-58
2021/04/21 05:43:29;;;;;;;0.30;0.20;;;;;;;7.34;92.52;100220.69;5037540;28;20521;-57
2021/04/21 05:46:16;;;;;;;0.30;0.20;;;;;;;7.53;91.79;100217.72;5027997;28;20477;-58
2021/04/21 05:49:13;;;;;;;0.30;0.20;;;;;;;7.55;91.76;100215.97;5023160;28;20470;-58
2021/04/21 05:52:13;;;;;;;0.30;0.20;;;;;;;7.56;91.03;100223.00;5036827;28;20498;-58
2021/04/21 05:55:18;;;;;;;0.30;0.20;;;;;;;7.80;91.64;100214.59;5035064;28;20448;-57
2021/04/21 05:58:01;;;;;;;0.50;0.50;;;;;;;7.94;92.54;100216.97;5008127;28;21007;-59
2021/04/21 06:00:46;;;;;;;0.30;0.20;;;;;;;7.96;91.48;100221.38;5036264;28;20948;-58
2021/04/21 06:03:13;;;;;;;0.30;0.20;;;;;;;8.58;91.72;100227.19;5035636;28;20478;-58
2021/04/21 06:05:39;;;;;;;1.23;1.23;;;;;;;8.66;91.61;100223.50;5035513;28;20447;-58
2021/04/21 06:08:13;;;;;;;0.30;0.20;;;;;;;8.75;91.07;100216.22;5033660;28;20824;-59
2021/04/21 06:10:40;;;;;;;0.30;0.20;;;;;;;8.77;91.15;100226.78;5028818;28;20494;-60
2021/04/21 06:13:07;;;;;;;0.30;0.20;;;;;;;8.76;90.69;100217.94;5034875;28;20467;-59
2021/04/21 06:15:39;;;;;;;0.30;0.20;;;;;;;8.78;90.70;100220.59;5034693;28;20449;-59
2021/04/21 06:18:07;;;;;;;0.30;0.20;;;;;;;8.88;90.25;100227.41;5034616;28;20933;-59
2021/04/21 06:20:41;;;;;;;0.30;0.20;;;;;;;8.49;91.83;100226.50;5034619;28;20452;-59
2021/04/21 06:23:12;;;;;;;0.30;0.20;;;;;;;8.60;92.83;100222.72;5034686;28;20550;-59
2021/04/21 06:25:45;;;;;;;0.30;0.20;;;;;;;8.75;91.18;100224.16;5034407;28;20459;-59
2021/04/21 06:28:17;;;;;;;0.30;0.20;;;;;;;8.67;92.03;100230.56;5034338;28;20929;-59
2021/04/21 06:30:46;;;;;;;0.30;0.20;;;;;;;8.82;92.60;100227.56;5034472;28;20495;-59
2021/04/21 06:33:13;;;;;;;2.00;1.03;;;;;;;8.87;92.21;100223.00;5034082;28;20538;-59
2021/04/21 06:35:42;;;;;;;0.30;0.20;;;;;;;8.90;92.23;100225.59;5034384;28;20953;-59
2021/04/21 06:38:10;;;;;;;0.30;0.20;;;;;;;8.87;91.60;100225.66;5034158;28;20872;-59
2021/04/21 06:40:39;;;;;;;0.30;0.20;;;;;;;8.81;92.38;100225.81;5033650;28;20444;-59
2021/04/21 06:43:05;;;;;;;0.30;0.20;;;;;;;9.02;91.92;100230.63;5034050;28;20476;-59
2021/04/21 06:45:36;;;;;;;0.33;0.27;;;;;;;9.24;90.68;100236.28;5034256;28;20479;-59
2021/04/21 06:48:05;;;;;;;0.30;0.20;;;;;;;9.72;90.11;100235.97;5034163;28;20451;-59
2021/04/21 06:50:37;;;;;;;0.30;0.20;;;;;;;10.15;87.88;100230.41;5033920;28;20487;-59
2021/04/21 06:53:08;;;;;;;0.30;0.20;;;;;;;9.75;87.13;100242.09;5033763;28;20468;-56
2021/04/21 06:55:35;;;;;;;0.40;0.40;;;;;;;9.37;89.36;100236.88;5033803;28;20451;-57
2021/04/21 06:58:16;;;;;;;0.30;0.20;;;;;;;9.80;88.77;100234.88;5032630;28;20447;-56
2021/04/21 07:00:42;;;;;;;0.30;0.20;;;;;;;9.62;89.91;100235.34;5033621;28;20444;-56
2021/04/21 07:03:17;;;;;;;0.30;0.20;;;;;;;10.18;88.56;100232.97;5033683;28;20482;-56
2021/04/21 07:05:44;;;;;;;0.30;0.20;;;;;;;10.17;87.27;100225.91;5033658;28;20451;-56
2021/04/21 07:08:27;;;;;;;0.30;0.20;;;;;;;10.49;85.82;100226.78;5020531;28;20455;-57
2021/04/21 07:10:57;;;;;;;0.30;0.20;;;;;;;10.79;86.53;100236.50;5033468;28;20838;-57
2021/04/21 07:13:35;;;;;;;0.97;0.97;;;;;;;11.20;85.02;100229.03;5033494;28;20947;-56
2021/04/21 07:16:10;;;;;;;0.30;0.20;;;;;;;10.65;87.06;100231.59;5033402;28;20444;-56
2021/04/21 07:18:42;;;;;;;0.30;0.20;;;;;;;10.53;87.11;100229.31;5033807;28;20447;-56
2021/04/21 07:21:10;;;;;;;0.40;0.30;;;;;;;10.64;87.00;100234.31;5033427;28;20530;-56
2021/04/21 07:23:39;;;;;;;0.40;0.30;;;;;;;10.70;86.88;100235.94;5033418;28;20451;-56
2021/04/21 07:26:06;;;;;;;0.73;0.73;;;;;;;10.59;88.28;100231.81;5020447;28;20594;-56
2021/04/21 07:28:37;;;;;;;0.57;0.57;;;;;;;10.72;88.10;100237.63;5033002;28;20671;-57
2021/04/21 07:31:16;;;;;;;0.30;0.20;;;;;;;10.53;88.53;100233.75;5033251;28;20553;-58
2021/04/21 07:33:48;;;;;;;0.30;0.20;;;;;;;10.83;87.82;100232.88;5032838;28;20513;-58
2021/04/21 07:36:23;;;;;;;0.30;0.20;;;;;;;10.88;86.59;100230.91;5033158;28;20448;-58
2021/04/21 07:38:54;;;;;;;0.30;0.20;;;;;;;11.11;86.16;100224.03;5032888;28;20451;-58
2021/04/21 07:41:37;;;;;;;0.30;0.20;;;;;;;11.82;81.93;100224.31;5032832;28;20490;-59
2021/04/21 07:44:06;;;;;;;0.30;0.20;;;;;;;11.20;83.16;100227.25;5021846;28;20455;-59
2021/04/21 07:46:32;;;;;;;0.30;0.20;;;;;;;11.25;84.41;100227.13;5033042;28;20459;-59
2021/04/21 07:48:59;;;;;;;0.30;0.20;;;;;;;11.23;82.84;100224.47;5032843;28;20444;-59
2021/04/21 07:51:25;;;;;;;1.00;1.00;;;;;;;11.53;82.14;100217.28;5031636;28;20523;-59
2021/04/21 07:54:05;;;;;;;0.40;0.40;;;;;;;12.10;81.33;100226.88;5031813;28;20463;-59
2021/04/21 07:56:35;;;;;;;0.30;0.20;;;;;;;12.13;79.10;100221.44;5032690;28;21007;-59
2021/04/21 07:59:16;;;;;;;0.53;0.53;;;;;;;12.67;78.64;100222.09;5032971;28;20451;-59
2021/04/21 08:01:43;;;;;;;0.40;0.30;;;;;;;12.71;79.33;100224.59;5032589;28;20472;-59
2021/04/21 08:04:28;;;;;;;0.40;0.40;;;;;;;12.59;79.31;100224.19;5032614;28;20521;-59
2021/04/21 08:06:58;;;;;;;5.37;0.77;;;;;;;12.52;79.13;100223.56;5032808;28;20490;-60
2021/04/21 08:09:31;;;;;;;2.20;2.00;;;;;;;13.13;78.89;100225.63;5032677;28;20454;-59
2021/04/21 08:12:13;;;;;;;0.30;0.20;;;;;;;12.81;78.97;100218.91;5032549;28;21131;-59
2021/04/21 08:14:48;;;;;;;0.30;0.20;;;;;;;13.40;77.19;100219.19;5031217;28;20444;-59
2021/04/21 08:17:16;;;;;;;2.93;0.67;;;;;;;13.49;76.96;100223.31;5032696;28;20451;-59
2021/04/21 08:19:48;;;;;;;0.30;0.20;;;;;;;14.04;76.24;100212.94;5032627;28;20535;-59
2021/04/21 08:22:23;;;;;;;0.40;0.20;;;;;;;13.87;75.14;100217.22;5032413;28;20506;-59
2021/04/21 08:24:49;;;;;;;0.30;0.20;;;;;;;13.68;74.66;100213.56;5032280;28;20455;-59
2021/04/21 08:27:17;;;;;;;0.30;0.30;;;;;;;13.94;74.71;100215.13;5032290;28;20451;-59
2021/04/21 08:29:45;;;;;;;0.30;0.20;;;;;;;13.99;74.66;100213.16;5032248;28;20498;-59
2021/04/21 08:32:22;;;;;;;2.50;2.00;;;;;;;14.50;73.30;100214.44;5032012;28;20471;-59
2021/04/21 08:34:50;;;;;;;0.43;0.43;;;;;;;14.10;71.90;100216.19;5032794;28;20505;-59
2021/04/21 08:37:18;;;;;;;0.70;0.40;;;;;;;14.65;71.98;100219.06;5030645;28;20956;-59
2021/04/21 08:39:44;;;;;;;0.40;0.40;;;;;;;14.69;71.41;100211.78;5030913;28;20447;-59
2021/04/21 08:42:12;;;;;;;0.40;0.40;;;;;;;14.29;71.06;100208.22;5017815;28;20490;-59
2021/04/21 08:44:43;;;;;;;0.40;0.40;;;;;;;14.34;72.51;100211.56;5031982;28;20455;-59
2021/04/21 08:47:14;;;;;;;2.00;1.80;;;;;;;14.61;71.54;100212.13;5032344;28;20448;-59
2021/04/21 08:49:41;;;;;;;0.40;0.20;;;;;;;14.81;71.83;100214.75;5032158;28;20526;-59
2021/04/21 08:52:08;;;;;;;0.30;0.20;;;;;;;15.07;71.84;100216.16;5032038;28;20475;-59
2021/04/21 08:54:35;;;;;;;0.70;0.70;;;;;;;15.13;71.25;100214.16;5032198;28;20447;-59
2021/04/21 08:57:02;;;;;;;0.80;0.80;;;;;;;15.71;69.99;100217.50;5032232;28;20459;-59
2021/04/21 08:59:29;;;;;;;0.40;0.30;;;;;;;15.18;69.21;100210.28;5032112;28;20447;-59
2021/04/21 09:01:55;;;;;;;2.20;0.87;;;;;;;15.15;70.37;100204.22;5030743;28;20800;-59
2021/04/21 09:04:22;;;;;;;0.40;0.30;;;;;;;15.35;70.01;100198.75;5033246;28;20458;-60
2021/04/21 09:06:48;;;;;;;0.50;0.50;;;;;;;15.84;68.55;100205.22;5035914;28;20482;-59
2021/04/21 09:09:16;;;;;;;0.40;0.30;;;;;;;16.16;68.68;100206.19;5036053;28;20459;-59
2021/04/21 09:11:43;;;;;;;0.40;0.20;;;;;;;16.54;67.81;100203.28;5035648;28;21054;-59
2021/04/21 09:14:09;;;;;;;0.30;0.20;;;;;;;16.65;67.16;100203.56;5035717;28;20489;-59
2021/04/21 09:16:36;;;;;;;0.40;0.30;;;;;;;16.62;66.78;100205.56;5035787;28;20859;-59
2021/04/21 09:19:14;;;;;;;0.50;0.50;;;;;;;16.39;68.47;100199.63;5035516;28;20963;-59
2021/04/21 09:21:41;;;;;;;0.40;0.20;;;;;;;16.33;68.24;100208.00;5035927;28;20498;-59
2021/04/21 09:24:26;;;;;;;1.43;1.33;;;;;;;16.51;67.83;100208.81;5035739;28;20447;-59
2021/04/21 09:26:53;;;;;;;0.50;0.40;;;;;;;16.67;67.62;100201.69;5035571;28;20451;-59
2021/04/21 09:29:32;;;;;;;0.40;0.30;;;;;;;17.14;66.48;100200.88;5035484;28;20451;-59
2021/04/21 09:32:06;;;;;;;2.70;2.60;;;;;;;16.82;66.99;100200.84;5035374;28;20915;-59
2021/04/21 09:34:56;;;;;;;0.40;0.20;;;;;;;16.91;64.85;100195.91;5035488;28;20602;-59
2021/04/21 09:37:25;;;;;;;0.77;0.77;;;;;;;17.21;64.22;100194.16;5022788;28;20451;-59
2021/04/21 09:39:52;;;;;;;0.47;0.40;;;;;;;17.16;63.39;100194.44;5035179;28;20941;-59
2021/04/21 09:42:27;;;;;;;1.97;1.80;;;;;;;17.10;64.50;100197.47;5035705;28;20844;-59
2021/04/21 09:44:53;;;;;;;0.50;0.30;;;;;;;17.51;64.10;100196.03;5035261;28;20496;-59
2021/04/21 09:47:20;;;;;;;1.03;0.90;;;;;;;17.64;63.92;100194.34;5035374;28;20451;-59
2021/04/21 09:49:55;;;;;;;0.40;0.20;;;;;;;17.34;63.03;100191.66;5035297;28;20511;-59
2021/04/21 09:52:21;;;;;;;0.50;0.43;;;;;;;16.99;62.88;100199.03;5035314;28;20988;-59
2021/04/21 09:54:49;;;;;;;3.07;2.77;;;;;;;17.20;61.57;100188.91;5035380;28;20459;-58
2021/04/21 09:57:23;;;;;;;2.13;2.03;;;;;;;17.23;59.99;100192.25;5035195;28;20448;-59
2021/04/21 09:59:58;;;;;;;0.47;0.37;;;;;;;17.47;59.45;100190.84;5035166;28;20463;-59
2021/04/21 10:02:31;;;;;;;0.40;0.30;;;;;;;17.69;59.23;100189.63;5033778;28;20525;-58
2021/04/21 10:04:58;;;;;;;3.33;2.73;;;;;;;17.62;58.75;100193.59;5035376;28;20448;-59
2021/04/21 10:07:24;;;;;;;0.40;0.40;;;;;;;17.81;58.80;100183.47;5035012;28;20447;-59
2021/04/21 10:09:57;;;;;;;0.40;0.20;;;;;;;17.54;58.43;100179.72;5034681;28;20451;-58
2021/04/21 10:12:36;;;;;;;0.40;0.30;;;;;;;17.82;58.37;100176.28;5034630;28;20514;-59
2021/04/21 10:15:11;;;;;;;2.40;2.30;;;;;;;18.50;56.32;100182.81;5034494;28;20471;-59
2021/04/21 10:17:42;;;;;;;1.67;1.57;;;;;;;18.35;54.05;100165.78;5033946;28;20895;-59
2021/04/21 10:20:18;;;;;;;0.40;0.20;;;;;;;18.55;53.21;100171.75;5033844;28;20448;-59
2021/04/21 10:22:46;;;;;;;0.80;0.80;;;;;;;18.28;52.69;100177.03;5022033;28;20880;-59
2021/04/21 10:25:14;;;;;;;1.33;1.23;;;;;;;18.26;53.91;100173.59;5034791;28;20509;-59
2021/04/21 10:27:41;;;;;;;0.50;0.30;;;;;;;18.25;53.01;100170.03;5034054;28;20830;-59
2021/04/21 10:30:09;;;;;;;0.40;0.20;;;;;;;18.14;52.24;100169.81;5034138;28;20545;-59
2021/04/21 10:32:36;;;;;;;0.50;0.50;;;;;;;18.43;54.71;100170.69;5034197;28;20488;-59
2021/04/21 10:35:03;;;;;;;0.40;0.20;;;;;;;18.26;52.19;100165.50;5034082;28;20979;-59
2021/04/21 10:37:43;;;;;;;0.50;0.30;;;;;;;18.23;54.23;100171.09;5034609;28;20448;-59
2021/04/21 10:40:11;;;;;;;0.40;0.20;;;;;;;18.35;54.94;100172.97;5034054;28;20463;-59
2021/04/21 10:42:48;;;;;;;0.40;0.20;;;;;;;18.48;52.78;100175.78;5034080;28;20468;-59
2021/04/21 10:45:18;;;;;;;2.97;1.73;;;;;;;18.48;52.82;100176.63;5034222;28;20451;-59
2021/04/21 10:47:47;;;;;;;0.80;0.70;;;;;;;18.18;52.04;100176.72;5034262;28;20448;-59
2021/04/21 10:50:32;;;;;;;0.73;0.73;;;;;;;17.76;53.71;100177.53;5033920;28;20514;-59
2021/04/21 10:52:58;;;;;;;1.03;1.03;;;;;;;18.11;54.19;100167.31;5033765;28;20463;-59
2021/04/21 10:55:27;;;;;;;0.40;0.20;;;;;;;18.23;56.22;100165.72;5034171;28;20455;-59
2021/04/21 10:57:57;;;;;;;1.03;1.03;;;;;;;18.10;56.22;100164.72;5033768;28;20963;-59
2021/04/21 11:00:23;;;;;;;0.40;0.30;;;;;;;18.23;56.22;100163.00;5033674;28;20963;-59
2021/04/21 11:02:57;;;;;;;0.57;0.50;;;;;;;18.25;57.41;100169.16;5033521;28;21034;-61
2021/04/21 11:05:38;;;;;;;0.40;0.40;;;;;;;18.20;56.15;100163.19;5033762;28;20534;-59
2021/04/21 11:08:07;;;;;;;1.23;1.23;;;;;;;18.49;55.05;100164.91;5033943;28;20448;-58
2021/04/21 11:10:42;;;;;;;0.40;0.20;;;;;;;18.60;54.76;100162.41;5033106;28;20484;-59
2021/04/21 11:13:17;;;;;;;4.23;1.47;;;;;;;18.70;54.61;100159.16;5033585;28;20479;-59
2021/04/21 11:15:49;;;;;;;0.40;0.30;;;;;;;18.64;54.22;100155.91;5033372;28;20447;-59
2021/04/21 11:18:29;;;;;;;0.40;0.30;;;;;;;18.68;54.42;100159.28;5033655;28;20455;-59
2021/04/21 11:20:55;;;;;;;0.40;0.20;;;;;;;18.91;55.02;100157.75;5033037;28;20931;-59
2021/04/21 11:23:48;;;;;;;0.40;0.20;;;;;;;18.71;53.78;100160.91;5033137;28;20459;-59
2021/04/21 11:26:23;;;;;;;0.97;0.97;;;;;;;18.62;54.28;100151.53;5032953;28;20941;-59
2021/04/21 11:29:10;;;;;;;0.50;0.50;;;;;;;18.22;53.07;100150.50;5032811;28;20967;-59
2021/04/21 11:31:51;;;;;;;6.90;1.60;;;;;;;17.88;53.51;100151.72;5031625;28;20491;-62
2021/04/21 11:34:30;;;;;;;0.40;0.30;;;;;;;18.13;54.70;100151.09;5021859;28;20454;-59
2021/04/21 11:37:17;;;;;;;0.40;0.30;;;;;;;18.14;56.03;100142.06;5033385;28;20538;-59
2021/04/21 11:39:46;;;;;;;0.50;0.50;;;;;;;18.43;54.67;100145.59;5032896;28;20964;-59
2021/04/21 11:42:28;;;;;;;0.50;0.50;;;;;;;18.02;54.73;100146.34;5019199;28;20472;-58
2021/04/21 11:44:57;;;;;;;0.40;0.20;;;;;;;18.69;54.99;100139.44;5032639;28;20501;-58
2021/04/21 11:47:39;;;;;;;2.60;1.07;;;;;;;18.80;52.60;100138.75;5031948;28;20474;-59
2021/04/21 11:50:13;;;;;;;0.40;0.20;;;;;;;18.57;52.50;100135.69;5032789;28;20447;-58
2021/04/21 11:52:51;;;;;;;5.03;3.00;;;;;;;18.48;51.21;100127.31;5032912;28;20513;-59
2021/04/21 11:55:25;;;;;;;0.77;0.77;;;;;;;18.34;51.57;100133.59;5019198;28;20451;-58
2021/04/21 11:57:57;;;;;;;2.20;0.90;;;;;;;18.44;50.07;100126.66;5032830;28;20454;-58